sensor_id;sensor_type;location;lat;lon;timestamp;pressure;altitude;pressure_sealevel;temperature;humidity
54308;BME280;40208;39.778;2.710;2023-05-15T00:02:48;101328.72;;;16.55;100.00
54308;BME280;40208;39.778;2.710;2023-05-15T00:05:35;101311.38;;;16.46;100.00
54308;BME280;40208;39.778;2.710;2023-05-15T00:08:26;101387.16;;;16.93;100.00
54308;BME280;40208;39.778;2.710;2023-05-15T00:11:13;101359.63;;;16.75;100.00
54308;BME280;40208;39.778;2.710;2023-05-15T00:13:57;101224.00;;;16.01;100.00
54308;BME280;40208;39.778;2.710;2023-05-15T00:16:44;101241.53;;;16.06;100.00
54308;BME280;40208;39.778;2.710;2023-05-15T00:19:29;101249.66;;;16.19;100.00
54308;BME280;40208;39.778;2.710;2023-05-15T00:22:20;101309.31;;;16.51;100.00
54308;BME280;40208;39.778;2.710;2023-05-15T00:25:06;101359.38;;;16.80;100.00
54308;BME280;40208;39.778;2.710;2023-05-15T00:27:56;101221.78;;;15.93;100.00
54308;BME280;40208;39.778;2.710;2023-05-15T00:30:41;101340.88;;;16.61;100.00
54308;BME280;40208;39.778;2.710;2023-05-15T00:33:26;101107.88;;;15.14;100.00
54308;BME280;40208;39.778;2.710;2023-05-15T00:36:13;101281.72;;;16.35;100.00
54308;BME280;40208;39.778;2.710;2023-05-15T00:38:58;101179.22;;;15.74;100.00
54308;BME280;40208;39.778;2.710;2023-05-15T00:41:44;101304.53;;;16.57;100.00
54308;BME280;40208;39.778;2.710;2023-05-15T00:44:39;101200.03;;;15.99;100.00
54308;BME280;40208;39.778;2.710;2023-05-15T00:47:26;101208.63;;;16.04;100.00
54308;BME280;40208;39.778;2.710;2023-05-15T00:50:21;101248.81;;;16.33;100.00
54308;BME280;40208;39.778;2.710;2023-05-15T00:53:10;101290.16;;;16.58;100.00
54308;BME280;40208;39.778;2.710;2023-05-15T00:56:05;101203.25;;;16.04;100.00
54308;BME280;40208;39.778;2.710;2023-05-15T00:58:50;101158.31;;;15.81;100.00
54308;BME280;40208;39.778;2.710;2023-05-15T01:01:36;101215.22;;;16.13;100.00
54308;BME280;40208;39.778;2.710;2023-05-15T01:04:20;101254.81;;;16.51;100.00
54308;BME280;40208;39.778;2.710;2023-05-15T01:07:08;101020.59;;;15.13;100.00
54308;BME280;40208;39.778;2.710;2023-05-15T01:09:54;101239.44;;;16.40;100.00
54308;BME280;40208;39.778;2.710;2023-05-15T01:12:40;101233.13;;;16.41;100.00
54308;BME280;40208;39.778;2.710;2023-05-15T01:15:27;101198.09;;;16.16;100.00
54308;BME280;40208;39.778;2.710;2023-05-15T01:18:16;101263.91;;;16.63;100.00
54308;BME280;40208;39.778;2.710;2023-05-15T01:24:41;101268.63;;;16.59;100.00
54308;BME280;40208;39.778;2.710;2023-05-15T01:27:47;101225.66;;;16.32;100.00
54308;BME280;40208;39.778;2.710;2023-05-15T01:30:39;101161.16;;;15.92;100.00
54308;BME280;40208;39.778;2.710;2023-05-15T01:33:33;101136.91;;;15.81;100.00
54308;BME280;40208;39.778;2.710;2023-05-15T01:36:50;101171.13;;;16.04;100.00
54308;BME280;40208;39.778;2.710;2023-05-15T01:39:41;101219.34;;;16.33;100.00
54308;BME280;40208;39.778;2.710;2023-05-15T01:42:33;101090.38;;;15.53;100.00
54308;BME280;40208;39.778;2.710;2023-05-15T01:45:27;101207.09;;;16.29;100.00
54308;BME280;40208;39.778;2.710;2023-05-15T01:48:17;101239.03;;;16.46;100.00
54308;BME280;40208;39.778;2.710;2023-05-15T01:51:08;101274.91;;;16.58;100.00
54308;BME280;40208;39.778;2.710;2023-05-15T01:54:02;101213.03;;;16.34;100.00
54308;BME280;40208;39.778;2.710;2023-05-15T01:56:51;101147.59;;;15.95;100.00
54308;BME280;40208;39.778;2.710;2023-05-15T01:59:41;101110.28;;;15.78;100.00
54308;BME280;40208;39.778;2.710;2023-05-15T02:02:58;101240.50;;;16.52;100.00
54308;BME280;40208;39.778;2.710;2023-05-15T02:05:51;101088.25;;;15.44;100.00
54308;BME280;40208;39.778;2.710;2023-05-15T02:08:41;101231.41;;;16.26;100.00
54308;BME280;40208;39.778;2.710;2023-05-15T02:11:26;101163.94;;;15.90;100.00
54308;BME280;40208;39.778;2.710;2023-05-15T02:14:21;101191.38;;;15.94;100.00
54308;BME280;40208;39.778;2.710;2023-05-15T02:17:07;101163.09;;;15.76;100.00
54308;BME280;40208;39.778;2.710;2023-05-15T02:19:52;101229.66;;;16.10;100.00
54308;BME280;40208;39.778;2.710;2023-05-15T02:22:37;101120.75;;;15.38;100.00
54308;BME280;40208;39.778;2.710;2023-05-15T02:25:36;101223.63;;;16.07;100.00
54308;BME280;40208;39.778;2.710;2023-05-15T02:28:34;101228.41;;;16.02;100.00
54308;BME280;40208;39.778;2.710;2023-05-15T02:34:32;101261.91;;;16.23;100.00
54308;BME280;40208;39.778;2.710;2023-05-15T02:37:24;101147.03;;;15.45;100.00
54308;BME280;40208;39.778;2.710;2023-05-15T02:40:12;101264.94;;;16.03;100.00
54308;BME280;40208;39.778;2.710;2023-05-15T02:43:02;101171.56;;;15.38;100.00
54308;BME280;40208;39.778;2.710;2023-05-15T02:45:48;101082.69;;;14.88;100.00
54308;BME280;40208;39.778;2.710;2023-05-15T02:48:36;101212.47;;;15.70;100.00
54308;BME280;40208;39.778;2.710;2023-05-15T02:51:25;101151.09;;;15.37;100.00
54308;BME280;40208;39.778;2.710;2023-05-15T02:54:12;101255.34;;;15.99;100.00
54308;BME280;40208;39.778;2.710;2023-05-15T02:57:04;101154.81;;;15.34;100.00
54308;BME280;40208;39.778;2.710;2023-05-15T02:59:55;101212.31;;;15.73;100.00
54308;BME280;40208;39.778;2.710;2023-05-15T03:02:42;101167.56;;;15.45;100.00
54308;BME280;40208;39.778;2.710;2023-05-15T03:05:27;101142.44;;;15.17;100.00
54308;BME280;40208;39.778;2.710;2023-05-15T03:08:12;101198.31;;;15.38;100.00
54308;BME280;40208;39.778;2.710;2023-05-15T03:10:57;101149.28;;;15.07;100.00
54308;BME280;40208;39.778;2.710;2023-05-15T03:13:44;101212.16;;;15.44;100.00
54308;BME280;40208;39.778;2.710;2023-05-15T03:16:30;101128.44;;;14.98;100.00
54308;BME280;40208;39.778;2.710;2023-05-15T03:19:17;101129.41;;;14.81;100.00
54308;BME280;40208;39.778;2.710;2023-05-15T03:22:02;101108.72;;;14.69;100.00
54308;BME280;40208;39.778;2.710;2023-05-15T03:24:49;101224.91;;;15.55;100.00
54308;BME280;40208;39.778;2.710;2023-05-15T03:27:38;101057.81;;;14.56;100.00
54308;BME280;40208;39.778;2.710;2023-05-15T03:30:24;101172.16;;;15.27;100.00
54308;BME280;40208;39.778;2.710;2023-05-15T03:33:09;101050.81;;;14.53;100.00
54308;BME280;40208;39.778;2.710;2023-05-15T03:35:54;101072.44;;;14.49;100.00
54308;BME280;40208;39.778;2.710;2023-05-15T03:38:41;101015.34;;;14.19;100.00
54308;BME280;40208;39.778;2.710;2023-05-15T03:41:27;101214.38;;;15.22;100.00
54308;BME280;40208;39.778;2.710;2023-05-15T03:44:18;101220.81;;;15.34;100.00
54308;BME280;40208;39.778;2.710;2023-05-15T03:47:05;101152.81;;;14.92;100.00
54308;BME280;40208;39.778;2.710;2023-05-15T03:49:50;101192.47;;;15.15;100.00
54308;BME280;40208;39.778;2.710;2023-05-15T03:52:39;101002.44;;;14.12;100.00
54308;BME280;40208;39.778;2.710;2023-05-15T03:55:50;101203.38;;;15.42;100.00
54308;BME280;40208;39.778;2.710;2023-05-15T03:58:43;101083.03;;;14.66;100.00
54308;BME280;40208;39.778;2.710;2023-05-15T04:01:30;101173.69;;;15.01;100.00
54308;BME280;40208;39.778;2.710;2023-05-15T04:04:17;101171.09;;;14.99;100.00
54308;BME280;40208;39.778;2.710;2023-05-15T04:07:04;101177.28;;;15.16;100.00
54308;BME280;40208;39.778;2.710;2023-05-15T04:09:55;101172.91;;;14.99;100.00
54308;BME280;40208;39.778;2.710;2023-05-15T04:12:40;101033.34;;;14.16;100.00
54308;BME280;40208;39.778;2.710;2023-05-15T04:15:26;101184.63;;;14.96;100.00
54308;BME280;40208;39.778;2.710;2023-05-15T04:18:17;101134.41;;;14.71;100.00
54308;BME280;40208;39.778;2.710;2023-05-15T04:21:02;101191.09;;;15.08;100.00
54308;BME280;40208;39.778;2.710;2023-05-15T04:23:53;101096.28;;;14.52;100.00
54308;BME280;40208;39.778;2.710;2023-05-15T04:26:44;101039.09;;;14.08;100.00
54308;BME280;40208;39.778;2.710;2023-05-15T04:29:33;101084.59;;;14.38;100.00
54308;BME280;40208;39.778;2.710;2023-05-15T04:32:22;101100.25;;;14.45;100.00
54308;BME280;40208;39.778;2.710;2023-05-15T04:35:09;101105.25;;;14.35;100.00
54308;BME280;40208;39.778;2.710;2023-05-15T04:37:59;101053.41;;;14.07;100.00
54308;BME280;40208;39.778;2.710;2023-05-15T04:40:49;101193.03;;;14.74;100.00
54308;BME280;40208;39.778;2.710;2023-05-15T04:43:36;101087.84;;;14.12;100.00
54308;BME280;40208;39.778;2.710;2023-05-15T04:46:25;101063.81;;;13.96;100.00
54308;BME280;40208;39.778;2.710;2023-05-15T04:49:10;101073.72;;;14.10;100.00
54308;BME280;40208;39.778;2.710;2023-05-15T04:51:59;101120.56;;;14.47;100.00
54308;BME280;40208;39.778;2.710;2023-05-15T04:54:46;100813.19;;;12.64;100.00
54308;BME280;40208;39.778;2.710;2023-05-15T04:57:33;101194.41;;;14.81;100.00
54308;BME280;40208;39.778;2.710;2023-05-15T05:00:18;101121.28;;;14.35;100.00
54308;BME280;40208;39.778;2.710;2023-05-15T05:03:03;101034.91;;;13.71;100.00
54308;BME280;40208;39.778;2.710;2023-05-15T05:05:48;101065.59;;;13.79;100.00
54308;BME280;40208;39.778;2.710;2023-05-15T05:08:35;101194.50;;;14.47;100.00
54308;BME280;40208;39.778;2.710;2023-05-15T05:11:20;101200.34;;;14.55;100.00
54308;BME280;40208;39.778;2.710;2023-05-15T05:14:07;101173.50;;;14.40;100.00
54308;BME280;40208;39.778;2.710;2023-05-15T05:16:52;101107.59;;;13.92;100.00
54308;BME280;40208;39.778;2.710;2023-05-15T05:20:02;101139.00;;;14.20;100.00
54308;BME280;40208;39.778;2.710;2023-05-15T05:22:52;101069.09;;;13.80;100.00
54308;BME280;40208;39.778;2.710;2023-05-15T05:25:41;101039.34;;;13.72;100.00
54308;BME280;40208;39.778;2.710;2023-05-15T05:28:28;101197.84;;;14.68;100.00
54308;BME280;40208;39.778;2.710;2023-05-15T05:31:19;101096.25;;;14.04;100.00
54308;BME280;40208;39.778;2.710;2023-05-15T05:34:04;101117.91;;;14.15;100.00
54308;BME280;40208;39.778;2.710;2023-05-15T05:36:53;101163.75;;;14.39;100.00
54308;BME280;40208;39.778;2.710;2023-05-15T05:39:38;101089.81;;;14.08;100.00
54308;BME280;40208;39.778;2.710;2023-05-15T05:42:25;101073.44;;;13.98;100.00
54308;BME280;40208;39.778;2.710;2023-05-15T05:45:14;101106.47;;;14.29;100.00
54308;BME280;40208;39.778;2.710;2023-05-15T05:48:01;101008.50;;;13.66;100.00
54308;BME280;40208;39.778;2.710;2023-05-15T05:50:46;101039.00;;;13.94;100.00
54308;BME280;40208;39.778;2.710;2023-05-15T05:53:31;101189.22;;;14.94;100.00
54308;BME280;40208;39.778;2.710;2023-05-15T05:56:16;101110.00;;;14.46;100.00
54308;BME280;40208;39.778;2.710;2023-05-15T05:59:00;101054.53;;;14.19;100.00
54308;BME280;40208;39.778;2.710;2023-05-15T06:01:50;101156.81;;;14.84;100.00
54308;BME280;40208;39.778;2.710;2023-05-15T06:04:40;101161.28;;;14.84;100.00
54308;BME280;40208;39.778;2.710;2023-05-15T06:07:27;101214.03;;;15.12;100.00
54308;BME280;40208;39.778;2.710;2023-05-15T06:10:12;101125.38;;;14.58;100.00
54308;BME280;40208;39.778;2.710;2023-05-15T06:12:57;100951.28;;;13.56;100.00
54308;BME280;40208;39.778;2.710;2023-05-15T06:15:46;101198.00;;;15.12;100.00
54308;BME280;40208;39.778;2.710;2023-05-15T06:18:30;101105.44;;;14.63;100.00
54308;BME280;40208;39.778;2.710;2023-05-15T06:21:15;101199.09;;;15.24;100.00
54308;BME280;40208;39.778;2.710;2023-05-15T06:24:02;101182.94;;;15.25;100.00
54308;BME280;40208;39.778;2.710;2023-05-15T06:26:47;101021.03;;;14.29;100.00
54308;BME280;40208;39.778;2.710;2023-05-15T06:29:36;101185.88;;;15.37;100.00
54308;BME280;40208;39.778;2.710;2023-05-15T06:32:27;101113.16;;;15.00;100.00
54308;BME280;40208;39.778;2.710;2023-05-15T06:35:12;101118.13;;;15.06;100.00
54308;BME280;40208;39.778;2.710;2023-05-15T06:38:00;101191.69;;;15.59;100.00
54308;BME280;40208;39.778;2.710;2023-05-15T06:40:49;101135.50;;;15.29;100.00
54308;BME280;40208;39.778;2.710;2023-05-15T06:43:34;101203.97;;;15.78;100.00
54308;BME280;40208;39.778;2.710;2023-05-15T06:46:25;101198.44;;;15.81;100.00
54308;BME280;40208;39.778;2.710;2023-05-15T06:49:12;101052.63;;;14.99;100.00
54308;BME280;40208;39.778;2.710;2023-05-15T06:52:21;101075.31;;;15.22;100.00
54308;BME280;40208;39.778;2.710;2023-05-15T06:55:09;101154.09;;;15.77;100.00
54308;BME280;40208;39.778;2.710;2023-05-15T06:58:00;101188.53;;;16.11;100.00
54308;BME280;40208;39.778;2.710;2023-05-15T07:00:49;101068.88;;;15.40;100.00
54308;BME280;40208;39.778;2.710;2023-05-15T07:04:04;101199.25;;;16.40;100.00
54308;BME280;40208;39.778;2.710;2023-05-15T07:06:51;101190.25;;;16.41;100.00
54308;BME280;40208;39.778;2.710;2023-05-15T07:09:42;101196.16;;;16.46;100.00
54308;BME280;40208;39.778;2.710;2023-05-15T07:12:31;101098.56;;;16.09;100.00
54308;BME280;40208;39.778;2.710;2023-05-15T07:15:20;101163.66;;;16.38;100.00
54308;BME280;40208;39.778;2.710;2023-05-15T07:18:38;100936.09;;;15.25;100.00
54308;BME280;40208;39.778;2.710;2023-05-15T07:21:25;100963.59;;;15.41;100.00
54308;BME280;40208;39.778;2.710;2023-05-15T07:24:12;101199.88;;;16.87;100.00
54308;BME280;40208;39.778;2.710;2023-05-15T07:27:03;101065.25;;;16.13;100.00
54308;BME280;40208;39.778;2.710;2023-05-15T07:29:52;101133.97;;;16.56;100.00
54308;BME280;40208;39.778;2.710;2023-05-15T07:32:37;101175.31;;;16.80;100.00
54308;BME280;40208;39.778;2.710;2023-05-15T07:35:24;101178.03;;;16.93;100.00
54308;BME280;40208;39.778;2.710;2023-05-15T07:38:10;101084.16;;;16.39;100.00
54308;BME280;40208;39.778;2.710;2023-05-15T07:40:54;101201.06;;;17.10;100.00
54308;BME280;40208;39.778;2.710;2023-05-15T07:43:41;101025.84;;;16.15;100.00
54308;BME280;40208;39.778;2.710;2023-05-15T07:46:28;101200.59;;;17.30;100.00
54308;BME280;40208;39.778;2.710;2023-05-15T07:49:18;101065.81;;;16.60;100.00
54308;BME280;40208;39.778;2.710;2023-05-15T07:52:07;101151.19;;;17.20;100.00
54308;BME280;40208;39.778;2.710;2023-05-15T07:54:52;101102.03;;;17.07;100.00
54308;BME280;40208;39.778;2.710;2023-05-15T07:57:43;101078.97;;;17.04;100.00
54308;BME280;40208;39.778;2.710;2023-05-15T08:00:33;101194.50;;;17.81;100.00
54308;BME280;40208;39.778;2.710;2023-05-15T08:03:20;101200.53;;;17.85;100.00
54308;BME280;40208;39.778;2.710;2023-05-15T08:06:06;101147.09;;;17.54;100.00
54308;BME280;40208;39.778;2.710;2023-05-15T08:08:52;101139.59;;;17.59;100.00
54308;BME280;40208;39.778;2.710;2023-05-15T08:11:38;101166.25;;;17.75;100.00
54308;BME280;40208;39.778;2.710;2023-05-15T08:14:23;101095.13;;;17.43;100.00
54308;BME280;40208;39.778;2.710;2023-05-15T08:17:12;101133.25;;;17.73;100.00
54308;BME280;40208;39.778;2.710;2023-05-15T08:20:02;101213.44;;;18.18;100.00
54308;BME280;40208;39.778;2.710;2023-05-15T08:22:53;101072.28;;;17.50;100.00
54308;BME280;40208;39.778;2.710;2023-05-15T08:25:39;101021.81;;;17.29;100.00
54308;BME280;40208;39.778;2.710;2023-05-15T08:28:25;101125.56;;;17.94;100.00
54308;BME280;40208;39.778;2.710;2023-05-15T08:31:11;101047.13;;;17.51;100.00
54308;BME280;40208;39.778;2.710;2023-05-15T08:34:05;101107.63;;;17.95;100.00
54308;BME280;40208;39.778;2.710;2023-05-15T08:36:54;101180.53;;;18.40;100.00
54308;BME280;40208;39.778;2.710;2023-05-15T08:39:42;101178.88;;;18.50;100.00
54308;BME280;40208;39.778;2.710;2023-05-15T08:45:27;101036.28;;;17.78;100.00
54308;BME280;40208;39.778;2.710;2023-05-15T08:48:17;101148.28;;;18.40;100.00
54308;BME280;40208;39.778;2.710;2023-05-15T08:51:08;101069.69;;;17.99;100.00
54308;BME280;40208;39.778;2.710;2023-05-15T08:53:55;101031.56;;;17.69;100.00
54308;BME280;40208;39.778;2.710;2023-05-15T08:56:42;101090.63;;;18.07;100.00
54308;BME280;40208;39.778;2.710;2023-05-15T08:59:27;101124.94;;;18.40;100.00
54308;BME280;40208;39.778;2.710;2023-05-15T09:02:17;101081.47;;;18.22;100.00
54308;BME280;40208;39.778;2.710;2023-05-15T09:05:03;100956.88;;;17.50;100.00
54308;BME280;40208;39.778;2.710;2023-05-15T09:07:53;101142.25;;;18.73;100.00
54308;BME280;40208;39.778;2.710;2023-05-15T09:10:39;101141.75;;;18.68;100.00
54308;BME280;40208;39.778;2.710;2023-05-15T09:13:28;100973.78;;;17.76;100.00
54308;BME280;40208;39.778;2.710;2023-05-15T09:16:19;100817.38;;;16.87;100.00
54308;BME280;40208;39.778;2.710;2023-05-15T09:19:13;101104.72;;;18.72;100.00
54308;BME280;40208;39.778;2.710;2023-05-15T09:22:13;101188.94;;;19.33;100.00
54308;BME280;40208;39.778;2.710;2023-05-15T09:25:06;101098.66;;;18.94;100.00
54308;BME280;40208;39.778;2.710;2023-05-15T09:27:51;101178.28;;;19.56;100.00
54308;BME280;40208;39.778;2.710;2023-05-15T09:30:39;101117.47;;;19.29;100.00
54308;BME280;40208;39.778;2.710;2023-05-15T09:33:33;101070.56;;;19.09;100.00
54308;BME280;40208;39.778;2.710;2023-05-15T09:36:20;101180.19;;;19.78;100.00
54308;BME280;40208;39.778;2.710;2023-05-15T09:39:07;101079.28;;;19.24;100.00
54308;BME280;40208;39.778;2.710;2023-05-15T09:41:52;101120.88;;;19.66;100.00
54308;BME280;40208;39.778;2.710;2023-05-15T09:44:41;101145.78;;;19.92;100.00
54308;BME280;40208;39.778;2.710;2023-05-15T09:47:28;101142.63;;;19.87;100.00
54308;BME280;40208;39.778;2.710;2023-05-15T09:50:20;101147.28;;;19.97;100.00
54308;BME280;40208;39.778;2.710;2023-05-15T09:53:10;101122.16;;;19.85;100.00
54308;BME280;40208;39.778;2.710;2023-05-15T09:56:01;101123.25;;;19.82;100.00
54308;BME280;40208;39.778;2.710;2023-05-15T09:58:57;100917.41;;;18.72;100.00
54308;BME280;40208;39.778;2.710;2023-05-15T10:01:44;101146.56;;;20.06;100.00
54308;BME280;40208;39.778;2.710;2023-05-15T10:04:33;101166.66;;;20.13;100.00
54308;BME280;40208;39.778;2.710;2023-05-15T10:07:30;101068.72;;;19.56;100.00
54308;BME280;40208;39.778;2.710;2023-05-15T10:10:17;101180.97;;;20.25;100.00
54308;BME280;40208;39.778;2.710;2023-05-15T10:13:09;101131.47;;;19.92;100.00
54308;BME280;40208;39.778;2.710;2023-05-15T10:15:57;101117.41;;;19.88;100.00
54308;BME280;40208;39.778;2.710;2023-05-15T10:18:51;101188.34;;;20.23;100.00
54308;BME280;40208;39.778;2.710;2023-05-15T10:21:39;101189.66;;;20.28;100.00
54308;BME280;40208;39.778;2.710;2023-05-15T10:25:00;101169.09;;;20.27;100.00
54308;BME280;40208;39.778;2.710;2023-05-15T10:27:50;101145.34;;;20.10;100.00
54308;BME280;40208;39.778;2.710;2023-05-15T10:30:36;101006.19;;;19.41;100.00
54308;BME280;40208;39.778;2.710;2023-05-15T10:33:34;101135.28;;;20.23;100.00
54308;BME280;40208;39.778;2.710;2023-05-15T10:36:45;101182.31;;;20.53;100.00
54308;BME280;40208;39.778;2.710;2023-05-15T10:39:37;101133.06;;;20.28;100.00
54308;BME280;40208;39.778;2.710;2023-05-15T10:42:29;101041.97;;;19.88;100.00
54308;BME280;40208;39.778;2.710;2023-05-15T10:45:14;101073.06;;;20.15;100.00
54308;BME280;40208;39.778;2.710;2023-05-15T10:48:06;101099.50;;;20.32;100.00
54308;BME280;40208;39.778;2.710;2023-05-15T10:50:58;101162.09;;;20.70;100.00
54308;BME280;40208;39.778;2.710;2023-05-15T10:57:53;101179.50;;;20.77;100.00
54308;BME280;40208;39.778;2.710;2023-05-15T11:00:43;101074.38;;;20.21;100.00
54308;BME280;40208;39.778;2.710;2023-05-15T11:03:36;101083.78;;;20.38;100.00
54308;BME280;40208;39.778;2.710;2023-05-15T11:06:29;101173.34;;;20.98;100.00
54308;BME280;40208;39.778;2.710;2023-05-15T11:09:32;101032.13;;;20.21;100.00
54308;BME280;40208;39.778;2.710;2023-05-15T11:12:19;101115.25;;;20.71;100.00
54308;BME280;40208;39.778;2.710;2023-05-15T11:18:05;101023.81;;;20.24;100.00
54308;BME280;40208;39.778;2.710;2023-05-15T11:23:39;101046.53;;;20.43;100.00
54308;BME280;40208;39.778;2.710;2023-05-15T11:26:33;101124.25;;;20.92;100.00
54308;BME280;40208;39.778;2.710;2023-05-15T11:29:26;101151.94;;;21.06;100.00
54308;BME280;40208;39.778;2.710;2023-05-15T11:35:35;101172.50;;;20.86;100.00
54308;BME280;40208;39.778;2.710;2023-05-15T11:38:49;101051.25;;;20.18;100.00
54308;BME280;40208;39.778;2.710;2023-05-15T11:41:34;101115.41;;;20.47;100.00
54308;BME280;40208;39.778;2.710;2023-05-15T11:44:27;101137.84;;;20.59;100.00
54308;BME280;40208;39.778;2.710;2023-05-15T11:47:14;101025.41;;;19.93;100.00
54308;BME280;40208;39.778;2.710;2023-05-15T11:50:27;101147.03;;;20.67;100.00
54308;BME280;40208;39.778;2.710;2023-05-15T11:53:18;101148.00;;;20.66;100.00
54308;BME280;40208;39.778;2.710;2023-05-15T11:56:26;101068.75;;;20.24;100.00
54308;BME280;40208;39.778;2.710;2023-05-15T11:59:20;101018.59;;;19.89;100.00
54308;BME280;40208;39.778;2.710;2023-05-15T12:02:06;101047.97;;;20.03;100.00
54308;BME280;40208;39.778;2.710;2023-05-15T12:04:59;101054.81;;;19.96;100.00
54308;BME280;40208;39.778;2.710;2023-05-15T12:07:50;101046.84;;;19.95;100.00
54308;BME280;40208;39.778;2.710;2023-05-15T12:10:43;101139.66;;;20.47;100.00
54308;BME280;40208;39.778;2.710;2023-05-15T12:13:33;101057.16;;;20.01;100.00
54308;BME280;40208;39.778;2.710;2023-05-15T12:16:26;101029.47;;;19.87;100.00
54308;BME280;40208;39.778;2.710;2023-05-15T12:19:26;101107.56;;;20.32;100.00
54308;BME280;40208;39.778;2.710;2023-05-15T12:22:17;101107.56;;;20.32;100.00
54308;BME280;40208;39.778;2.710;2023-05-15T12:25:13;101000.22;;;19.60;100.00
54308;BME280;40208;39.778;2.710;2023-05-15T12:28:03;101069.88;;;19.99;100.00
54308;BME280;40208;39.778;2.710;2023-05-15T12:31:00;101041.13;;;19.77;100.00
54308;BME280;40208;39.778;2.710;2023-05-15T12:34:10;101112.13;;;20.21;100.00
54308;BME280;40208;39.778;2.710;2023-05-15T12:37:04;101055.56;;;19.98;100.00
54308;BME280;40208;39.778;2.710;2023-05-15T12:39:55;101017.59;;;19.67;100.00
54308;BME280;40208;39.778;2.710;2023-05-15T12:42:52;101081.25;;;20.02;100.00
54308;BME280;40208;39.778;2.710;2023-05-15T12:45:40;100851.25;;;18.70;100.00
54308;BME280;40208;39.778;2.710;2023-05-15T12:48:35;101003.13;;;19.57;100.00
54308;BME280;40208;39.778;2.710;2023-05-15T12:51:22;101096.56;;;20.24;100.00
54308;BME280;40208;39.778;2.710;2023-05-15T12:54:17;101048.06;;;20.02;100.00
54308;BME280;40208;39.778;2.710;2023-05-15T12:57:04;101036.34;;;19.91;100.00
54308;BME280;40208;39.778;2.710;2023-05-15T12:59:55;101066.19;;;20.22;100.00
54308;BME280;40208;39.778;2.710;2023-05-15T13:02:52;101034.47;;;20.15;100.00
54308;BME280;40208;39.778;2.710;2023-05-15T13:05:43;101025.66;;;20.12;100.00
54308;BME280;40208;39.778;2.710;2023-05-15T13:08:30;101007.91;;;19.99;100.00
54308;BME280;40208;39.778;2.710;2023-05-15T13:11:42;101076.81;;;20.58;100.00
54308;BME280;40208;39.778;2.710;2023-05-15T13:14:33;100848.88;;;19.23;100.00
54308;BME280;40208;39.778;2.710;2023-05-15T13:17:24;101086.69;;;20.68;100.00
54308;BME280;40208;39.778;2.710;2023-05-15T13:20:09;100943.28;;;19.87;100.00
54308;BME280;40208;39.778;2.710;2023-05-15T13:22:59;100969.91;;;20.13;100.00
54308;BME280;40208;39.778;2.710;2023-05-15T13:25:47;100846.41;;;19.42;100.00
54308;BME280;40208;39.778;2.710;2023-05-15T13:28:33;100979.41;;;20.28;100.00
54308;BME280;40208;39.778;2.710;2023-05-15T13:31:49;101071.38;;;21.01;100.00
54308;BME280;40208;39.778;2.710;2023-05-15T13:35:23;101060.00;;;20.98;100.00
54308;BME280;40208;39.778;2.710;2023-05-15T13:38:38;100980.63;;;20.36;100.00
54308;BME280;40208;39.778;2.710;2023-05-15T13:41:28;101025.66;;;20.67;100.00
54308;BME280;40208;39.778;2.710;2023-05-15T13:44:19;100949.31;;;20.23;100.00
54308;BME280;40208;39.778;2.710;2023-05-15T13:47:06;100998.69;;;20.67;100.00
54308;BME280;40208;39.778;2.710;2023-05-15T13:49:55;101023.63;;;20.81;100.00
54308;BME280;40208;39.778;2.710;2023-05-15T13:52:44;101063.63;;;21.08;100.00
54308;BME280;40208;39.778;2.710;2023-05-15T13:55:31;101040.84;;;21.01;100.00
54308;BME280;40208;39.778;2.710;2023-05-15T13:58:22;100990.94;;;20.74;100.00
54308;BME280;40208;39.778;2.710;2023-05-15T14:01:15;101072.06;;;21.14;100.00
54308;BME280;40208;39.778;2.710;2023-05-15T14:04:57;101061.25;;;21.14;100.00
54308;BME280;40208;39.778;2.710;2023-05-15T14:07:50;100983.25;;;20.69;100.00
54308;BME280;40208;39.778;2.710;2023-05-15T14:10:35;100950.81;;;20.48;100.00
54308;BME280;40208;39.778;2.710;2023-05-15T14:13:26;100979.88;;;20.77;100.00
54308;BME280;40208;39.778;2.710;2023-05-15T14:16:25;100835.03;;;19.94;100.00
54308;BME280;40208;39.778;2.710;2023-05-15T14:19:20;101005.41;;;20.94;100.00
54308;BME280;40208;39.778;2.710;2023-05-15T14:22:34;101044.28;;;21.24;100.00
54308;BME280;40208;39.778;2.710;2023-05-15T14:25:29;100924.59;;;20.50;100.00
54308;BME280;40208;39.778;2.710;2023-05-15T14:28:22;100963.25;;;20.72;100.00
54308;BME280;40208;39.778;2.710;2023-05-15T14:31:17;100909.09;;;20.31;100.00
54308;BME280;40208;39.778;2.710;2023-05-15T14:34:02;101066.72;;;21.24;100.00
54308;BME280;40208;39.778;2.710;2023-05-15T14:37:00;100883.16;;;20.19;100.00
54308;BME280;40208;39.778;2.710;2023-05-15T14:39:45;100899.50;;;20.39;100.00
54308;BME280;40208;39.778;2.710;2023-05-15T14:42:41;100945.72;;;20.66;100.00
54308;BME280;40208;39.778;2.710;2023-05-15T14:45:33;101035.22;;;21.13;100.00
54308;BME280;40208;39.778;2.710;2023-05-15T14:48:18;100861.22;;;20.03;100.00
54308;BME280;40208;39.778;2.710;2023-05-15T14:51:13;100988.03;;;20.66;100.00
54308;BME280;40208;39.778;2.710;2023-05-15T14:54:00;100961.72;;;20.58;100.00
54308;BME280;40208;39.778;2.710;2023-05-15T14:56:50;101072.50;;;21.20;93.06
54308;BME280;40208;39.778;2.710;2023-05-15T14:59:45;101042.47;;;20.92;88.96
54308;BME280;40208;39.778;2.710;2023-05-15T15:02:30;100979.66;;;20.69;85.70
54308;BME280;40208;39.778;2.710;2023-05-15T15:05:21;101073.25;;;21.22;80.37